sensor_id;sensor_type;location;lat;lon;timestamp;P1;durP1;ratioP1;P2;durP2;ratioP2
60700;SDS011;46541;49.894;10.886;2023-11-19T00:00:29;3.17;;;2.53;;
60700;SDS011;46541;49.894;10.886;2023-11-19T00:02:55;2.88;;;2.40;;
60700;SDS011;46541;49.894;10.886;2023-11-19T00:05:22;3.30;;;2.65;;
60700;SDS011;46541;49.894;10.886;2023-11-19T00:07:49;2.78;;;2.50;;
60700;SDS011;46541;49.894;10.886;2023-11-19T00:10:16;5.93;;;2.53;;
60700;SDS011;46541;49.894;10.886;2023-11-19T00:12:47;2.80;;;2.53;;
60700;SDS011;46541;49.894;10.886;2023-11-19T00:15:16;4.25;;;2.80;;
60700;SDS011;46541;49.894;10.886;2023-11-19T00:17:45;2.75;;;2.03;;
60700;SDS011;46541;49.894;10.886;2023-11-19T00:20:20;3.10;;;2.42;;
60700;SDS011;46541;49.894;10.886;2023-11-19T00:22:48;3.78;;;2.67;;
60700;SDS011;46541;49.894;10.886;2023-11-19T00:25:19;4.13;;;2.45;;
60700;SDS011;46541;49.894;10.886;2023-11-19T00:27:47;4.45;;;2.60;;
60700;SDS011;46541;49.894;10.886;2023-11-19T00:30:14;2.75;;;2.30;;
60700;SDS011;46541;49.894;10.886;2023-11-19T00:32:41;4.28;;;2.92;;
60700;SDS011;46541;49.894;10.886;2023-11-19T00:35:08;3.00;;;2.25;;
60700;SDS011;46541;49.894;10.886;2023-11-19T00:37:36;3.40;;;2.70;;
60700;SDS011;46541;49.894;10.886;2023-11-19T00:40:03;3.65;;;2.78;;
60700;SDS011;46541;49.894;10.886;2023-11-19T00:42:32;3.78;;;2.83;;
60700;SDS011;46541;49.894;10.886;2023-11-19T00:44:58;3.50;;;2.47;;
60700;SDS011;46541;49.894;10.886;2023-11-19T00:47:27;4.70;;;2.92;;
60700;SDS011;46541;49.894;10.886;2023-11-19T00:49:54;3.53;;;2.42;;
60700;SDS011;46541;49.894;10.886;2023-11-19T00:52:21;3.22;;;2.38;;
60700;SDS011;46541;49.894;10.886;2023-11-19T00:54:48;2.70;;;2.10;;
60700;SDS011;46541;49.894;10.886;2023-11-19T00:57:15;2.65;;;2.45;;
60700;SDS011;46541;49.894;10.886;2023-11-19T00:59:42;2.63;;;2.10;;
60700;SDS011;46541;49.894;10.886;2023-11-19T01:02:09;2.55;;;2.30;;
60700;SDS011;46541;49.894;10.886;2023-11-19T01:04:36;3.90;;;2.22;;
60700;SDS011;46541;49.894;10.886;2023-11-19T01:07:03;2.75;;;2.10;;
60700;SDS011;46541;49.894;10.886;2023-11-19T01:09:34;3.55;;;2.28;;
60700;SDS011;46541;49.894;10.886;2023-11-19T01:12:01;4.32;;;2.92;;
60700;SDS011;46541;49.894;10.886;2023-11-19T01:14:29;2.65;;;2.03;;
60700;SDS011;46541;49.894;10.886;2023-11-19T01:16:56;3.83;;;2.08;;
60700;SDS011;46541;49.894;10.886;2023-11-19T01:19:24;4.55;;;2.35;;
60700;SDS011;46541;49.894;10.886;2023-11-19T01:21:51;2.63;;;2.20;;
60700;SDS011;46541;49.894;10.886;2023-11-19T01:24:18;2.65;;;2.40;;
60700;SDS011;46541;49.894;10.886;2023-11-19T01:26:45;2.70;;;2.45;;
60700;SDS011;46541;49.894;10.886;2023-11-19T01:29:12;3.35;;;2.88;;
60700;SDS011;46541;49.894;10.886;2023-11-19T01:31:43;4.45;;;2.28;;
60700;SDS011;46541;49.894;10.886;2023-11-19T01:34:12;3.17;;;2.42;;
60700;SDS011;46541;49.894;10.886;2023-11-19T01:36:39;2.55;;;2.35;;
60700;SDS011;46541;49.894;10.886;2023-11-19T01:39:05;2.95;;;2.25;;
60700;SDS011;46541;49.894;10.886;2023-11-19T01:41:36;3.58;;;2.40;;
60700;SDS011;46541;49.894;10.886;2023-11-19T01:44:03;4.20;;;2.75;;
60700;SDS011;46541;49.894;10.886;2023-11-19T01:46:31;2.78;;;2.28;;
60700;SDS011;46541;49.894;10.886;2023-11-19T01:48:59;2.85;;;2.53;;
60700;SDS011;46541;49.894;10.886;2023-11-19T01:51:27;2.90;;;2.42;;
60700;SDS011;46541;49.894;10.886;2023-11-19T01:53:54;3.92;;;2.70;;
60700;SDS011;46541;49.894;10.886;2023-11-19T01:56:23;3.20;;;2.63;;
60700;SDS011;46541;49.894;10.886;2023-11-19T01:58:51;3.30;;;2.40;;
60700;SDS011;46541;49.894;10.886;2023-11-19T02:01:20;2.72;;;2.45;;
60700;SDS011;46541;49.894;10.886;2023-11-19T02:03:48;2.83;;;2.60;;
60700;SDS011;46541;49.894;10.886;2023-11-19T02:06:15;3.78;;;2.63;;
60700;SDS011;46541;49.894;10.886;2023-11-19T02:08:42;2.88;;;2.58;;
60700;SDS011;46541;49.894;10.886;2023-11-19T02:11:12;3.17;;;2.67;;
60700;SDS011;46541;49.894;10.886;2023-11-19T02:13:39;3.33;;;2.72;;
60700;SDS011;46541;49.894;10.886;2023-11-19T02:16:07;3.33;;;2.58;;
60700;SDS011;46541;49.894;10.886;2023-11-19T02:18:37;3.50;;;2.95;;
60700;SDS011;46541;49.894;10.886;2023-11-19T02:21:03;3.28;;;2.92;;
60700;SDS011;46541;49.894;10.886;2023-11-19T02:23:31;3.30;;;3.00;;
60700;SDS011;46541;49.894;10.886;2023-11-19T02:28:28;3.70;;;3.22;;
60700;SDS011;46541;49.894;10.886;2023-11-19T02:30:55;4.68;;;3.60;;
60700;SDS011;46541;49.894;10.886;2023-11-19T02:33:22;4.22;;;3.47;;
60700;SDS011;46541;49.894;10.886;2023-11-19T02:35:49;4.13;;;3.35;;
60700;SDS011;46541;49.894;10.886;2023-11-19T02:38:16;3.72;;;3.33;;
60700;SDS011;46541;49.894;10.886;2023-11-19T02:40:42;4.97;;;4.18;;
60700;SDS011;46541;49.894;10.886;2023-11-19T02:43:09;3.25;;;2.95;;
60700;SDS011;46541;49.894;10.886;2023-11-19T02:45:36;3.50;;;3.20;;
60700;SDS011;46541;49.894;10.886;2023-11-19T02:48:03;4.10;;;3.70;;
60700;SDS011;46541;49.894;10.886;2023-11-19T02:50:32;4.60;;;3.42;;
60700;SDS011;46541;49.894;10.886;2023-11-19T02:52:59;3.92;;;3.10;;
60700;SDS011;46541;49.894;10.886;2023-11-19T02:55:27;3.38;;;3.00;;
60700;SDS011;46541;49.894;10.886;2023-11-19T02:57:56;3.83;;;2.95;;
60700;SDS011;46541;49.894;10.886;2023-11-19T03:00:25;3.75;;;3.22;;
60700;SDS011;46541;49.894;10.886;2023-11-19T03:03:02;3.90;;;3.10;;
60700;SDS011;46541;49.894;10.886;2023-11-19T03:05:44;3.33;;;3.03;;
60700;SDS011;46541;49.894;10.886;2023-11-19T03:08:13;3.88;;;3.47;;
60700;SDS011;46541;49.894;10.886;2023-11-19T03:10:46;4.28;;;3.40;;
60700;SDS011;46541;49.894;10.886;2023-11-19T03:13:13;3.22;;;2.60;;
60700;SDS011;46541;49.894;10.886;2023-11-19T03:15:40;3.47;;;2.55;;
60700;SDS011;46541;49.894;10.886;2023-11-19T03:18:07;4.78;;;2.70;;
60700;SDS011;46541;49.894;10.886;2023-11-19T03:20:34;3.30;;;3.00;;
60700;SDS011;46541;49.894;10.886;2023-11-19T03:23:01;3.33;;;2.97;;
60700;SDS011;46541;49.894;10.886;2023-11-19T03:25:28;3.63;;;3.22;;
60700;SDS011;46541;49.894;10.886;2023-11-19T03:28:00;3.78;;;3.17;;
60700;SDS011;46541;49.894;10.886;2023-11-19T03:30:28;6.20;;;4.05;;
60700;SDS011;46541;49.894;10.886;2023-11-19T03:33:00;5.57;;;4.25;;
60700;SDS011;46541;49.894;10.886;2023-11-19T03:35:27;4.63;;;4.10;;
60700;SDS011;46541;49.894;10.886;2023-11-19T03:37:54;5.20;;;4.38;;
60700;SDS011;46541;49.894;10.886;2023-11-19T03:40:22;5.35;;;4.30;;
60700;SDS011;46541;49.894;10.886;2023-11-19T03:42:48;4.85;;;4.07;;
60700;SDS011;46541;49.894;10.886;2023-11-19T03:45:15;5.10;;;4.30;;
60700;SDS011;46541;49.894;10.886;2023-11-19T03:47:42;5.75;;;4.45;;
60700;SDS011;46541;49.894;10.886;2023-11-19T03:50:09;5.63;;;4.57;;
60700;SDS011;46541;49.894;10.886;2023-11-19T03:52:36;5.25;;;4.03;;
60700;SDS011;46541;49.894;10.886;2023-11-19T03:55:06;5.20;;;3.97;;
60700;SDS011;46541;49.894;10.886;2023-11-19T03:57:34;4.15;;;3.35;;
60700;SDS011;46541;49.894;10.886;2023-11-19T04:00:01;3.83;;;3.22;;
60700;SDS011;46541;49.894;10.886;2023-11-19T04:02:36;5.88;;;3.28;;
60700;SDS011;46541;49.894;10.886;2023-11-19T04:05:03;3.83;;;3.40;;
60700;SDS011;46541;49.894;10.886;2023-11-19T04:07:31;3.67;;;3.15;;
60700;SDS011;46541;49.894;10.886;2023-11-19T04:09:58;3.90;;;3.33;;
60700;SDS011;46541;49.894;10.886;2023-11-19T04:12:25;4.53;;;3.67;;
60700;SDS011;46541;49.894;10.886;2023-11-19T04:14:52;4.00;;;3.60;;
60700;SDS011;46541;49.894;10.886;2023-11-19T04:17:22;4.93;;;3.92;;
60700;SDS011;46541;49.894;10.886;2023-11-19T04:19:49;12.10;;;6.10;;
60700;SDS011;46541;49.894;10.886;2023-11-19T04:22:16;4.32;;;3.65;;
60700;SDS011;46541;49.894;10.886;2023-11-19T04:24:43;7.95;;;4.22;;
60700;SDS011;46541;49.894;10.886;2023-11-19T04:27:11;4.15;;;3.60;;
60700;SDS011;46541;49.894;10.886;2023-11-19T04:29:38;4.13;;;3.65;;
60700;SDS011;46541;49.894;10.886;2023-11-19T04:32:05;6.30;;;5.03;;
60700;SDS011;46541;49.894;10.886;2023-11-19T04:34:32;8.07;;;6.30;;
60700;SDS011;46541;49.894;10.886;2023-11-19T04:36:59;6.30;;;4.18;;
60700;SDS011;46541;49.894;10.886;2023-11-19T04:39:32;5.32;;;3.83;;
60700;SDS011;46541;49.894;10.886;2023-11-19T04:41:59;5.43;;;3.65;;
60700;SDS011;46541;49.894;10.886;2023-11-19T04:44:25;11.02;;;8.63;;
60700;SDS011;46541;49.894;10.886;2023-11-19T04:46:52;10.77;;;6.68;;
60700;SDS011;46541;49.894;10.886;2023-11-19T04:49:19;12.13;;;8.27;;
60700;SDS011;46541;49.894;10.886;2023-11-19T04:51:47;5.18;;;4.47;;
60700;SDS011;46541;49.894;10.886;2023-11-19T04:54:14;9.95;;;6.40;;
60700;SDS011;46541;49.894;10.886;2023-11-19T04:56:44;7.28;;;5.65;;
60700;SDS011;46541;49.894;10.886;2023-11-19T04:59:12;18.27;;;7.03;;
60700;SDS011;46541;49.894;10.886;2023-11-19T05:01:38;6.38;;;4.88;;
60700;SDS011;46541;49.894;10.886;2023-11-19T05:04:06;7.63;;;5.57;;
60700;SDS011;46541;49.894;10.886;2023-11-19T05:06:34;10.43;;;6.88;;
60700;SDS011;46541;49.894;10.886;2023-11-19T05:09:01;8.23;;;6.30;;
60700;SDS011;46541;49.894;10.886;2023-11-19T05:11:33;11.30;;;5.15;;
60700;SDS011;46541;49.894;10.886;2023-11-19T05:14:02;10.65;;;6.63;;
60700;SDS011;46541;49.894;10.886;2023-11-19T05:16:32;9.05;;;6.30;;
60700;SDS011;46541;49.894;10.886;2023-11-19T05:18:59;6.57;;;5.07;;
60700;SDS011;46541;49.894;10.886;2023-11-19T05:21:26;8.30;;;4.60;;
60700;SDS011;46541;49.894;10.886;2023-11-19T05:23:53;8.65;;;5.47;;
60700;SDS011;46541;49.894;10.886;2023-11-19T05:26:21;9.05;;;6.32;;
60700;SDS011;46541;49.894;10.886;2023-11-19T05:28:48;6.28;;;5.38;;
60700;SDS011;46541;49.894;10.886;2023-11-19T05:31:16;6.72;;;4.85;;
60700;SDS011;46541;49.894;10.886;2023-11-19T05:33:44;7.70;;;5.70;;
60700;SDS011;46541;49.894;10.886;2023-11-19T05:36:11;7.70;;;5.50;;
60700;SDS011;46541;49.894;10.886;2023-11-19T05:38:38;6.97;;;5.97;;
60700;SDS011;46541;49.894;10.886;2023-11-19T05:41:06;6.88;;;5.40;;
60700;SDS011;46541;49.894;10.886;2023-11-19T05:43:32;6.88;;;5.45;;
60700;SDS011;46541;49.894;10.886;2023-11-19T05:45:59;6.43;;;5.13;;
60700;SDS011;46541;49.894;10.886;2023-11-19T05:48:27;7.80;;;5.63;;
60700;SDS011;46541;49.894;10.886;2023-11-19T05:50:55;11.07;;;6.18;;
60700;SDS011;46541;49.894;10.886;2023-11-19T05:53:21;8.70;;;5.47;;
60700;SDS011;46541;49.894;10.886;2023-11-19T05:55:48;6.45;;;5.10;;
60700;SDS011;46541;49.894;10.886;2023-11-19T05:58:30;6.93;;;5.72;;
60700;SDS011;46541;49.894;10.886;2023-11-19T06:00:56;9.82;;;6.78;;
60700;SDS011;46541;49.894;10.886;2023-11-19T06:03:23;8.38;;;6.40;;
60700;SDS011;46541;49.894;10.886;2023-11-19T06:05:52;7.22;;;5.75;;
60700;SDS011;46541;49.894;10.886;2023-11-19T06:08:20;10.27;;;6.60;;
60700;SDS011;46541;49.894;10.886;2023-11-19T06:10:47;7.18;;;5.93;;
60700;SDS011;46541;49.894;10.886;2023-11-19T06:13:16;7.50;;;5.63;;
60700;SDS011;46541;49.894;10.886;2023-11-19T06:15:43;8.85;;;6.55;;
60700;SDS011;46541;49.894;10.886;2023-11-19T06:18:10;7.88;;;6.38;;
60700;SDS011;46541;49.894;10.886;2023-11-19T06:20:40;8.20;;;5.93;;
60700;SDS011;46541;49.894;10.886;2023-11-19T06:23:09;10.63;;;6.43;;
60700;SDS011;46541;49.894;10.886;2023-11-19T06:25:36;7.95;;;6.53;;
60700;SDS011;46541;49.894;10.886;2023-11-19T06:28:03;7.80;;;5.95;;
60700;SDS011;46541;49.894;10.886;2023-11-19T06:30:30;11.68;;;7.97;;
60700;SDS011;46541;49.894;10.886;2023-11-19T06:32:58;10.75;;;6.68;;
60700;SDS011;46541;49.894;10.886;2023-11-19T06:35:26;8.00;;;6.28;;
60700;SDS011;46541;49.894;10.886;2023-11-19T06:37:55;8.57;;;6.72;;
60700;SDS011;46541;49.894;10.886;2023-11-19T06:40:22;8.32;;;6.85;;
60700;SDS011;46541;49.894;10.886;2023-11-19T06:42:49;9.10;;;6.78;;
60700;SDS011;46541;49.894;10.886;2023-11-19T06:45:18;9.52;;;7.45;;
60700;SDS011;46541;49.894;10.886;2023-11-19T06:47:45;8.68;;;6.82;;
60700;SDS011;46541;49.894;10.886;2023-11-19T06:50:11;10.85;;;6.78;;
60700;SDS011;46541;49.894;10.886;2023-11-19T06:52:38;9.45;;;6.93;;
60700;SDS011;46541;49.894;10.886;2023-11-19T06:55:06;8.75;;;6.97;;
60700;SDS011;46541;49.894;10.886;2023-11-19T06:57:34;12.82;;;7.38;;
60700;SDS011;46541;49.894;10.886;2023-11-19T07:00:01;10.52;;;7.60;;
60700;SDS011;46541;49.894;10.886;2023-11-19T07:02:28;8.90;;;7.00;;
60700;SDS011;46541;49.894;10.886;2023-11-19T07:04:54;8.93;;;6.50;;
60700;SDS011;46541;49.894;10.886;2023-11-19T07:07:21;13.18;;;6.80;;
60700;SDS011;46541;49.894;10.886;2023-11-19T07:09:48;9.82;;;7.13;;
60700;SDS011;46541;49.894;10.886;2023-11-19T07:12:15;18.95;;;12.77;;
60700;SDS011;46541;49.894;10.886;2023-11-19T07:14:41;10.38;;;6.53;;
60700;SDS011;46541;49.894;10.886;2023-11-19T07:17:08;8.90;;;6.50;;
60700;SDS011;46541;49.894;10.886;2023-11-19T07:19:36;10.07;;;6.25;;
60700;SDS011;46541;49.894;10.886;2023-11-19T07:22:04;15.85;;;9.63;;
60700;SDS011;46541;49.894;10.886;2023-11-19T07:24:32;11.95;;;7.70;;
60700;SDS011;46541;49.894;10.886;2023-11-19T07:26:59;9.52;;;6.97;;
60700;SDS011;46541;49.894;10.886;2023-11-19T07:29:27;8.38;;;6.07;;
60700;SDS011;46541;49.894;10.886;2023-11-19T07:31:55;7.03;;;4.88;;
60700;SDS011;46541;49.894;10.886;2023-11-19T07:34:23;8.15;;;6.25;;
60700;SDS011;46541;49.894;10.886;2023-11-19T07:36:51;5.95;;;4.82;;
60700;SDS011;46541;49.894;10.886;2023-11-19T07:39:18;6.95;;;5.45;;
60700;SDS011;46541;49.894;10.886;2023-11-19T07:41:46;7.35;;;5.18;;
60700;SDS011;46541;49.894;10.886;2023-11-19T07:44:13;7.97;;;4.40;;
60700;SDS011;46541;49.894;10.886;2023-11-19T07:46:40;5.30;;;3.63;;
60700;SDS011;46541;49.894;10.886;2023-11-19T07:49:08;6.00;;;4.60;;
60700;SDS011;46541;49.894;10.886;2023-11-19T07:51:36;9.07;;;5.97;;
60700;SDS011;46541;49.894;10.886;2023-11-19T07:54:03;6.05;;;4.68;;
60700;SDS011;46541;49.894;10.886;2023-11-19T07:56:30;3.97;;;2.42;;
60700;SDS011;46541;49.894;10.886;2023-11-19T07:58:58;3.30;;;2.45;;
60700;SDS011;46541;49.894;10.886;2023-11-19T08:01:24;3.20;;;2.63;;
60700;SDS011;46541;49.894;10.886;2023-11-19T08:03:51;3.67;;;2.78;;
60700;SDS011;46541;49.894;10.886;2023-11-19T08:06:21;3.10;;;2.67;;
60700;SDS011;46541;49.894;10.886;2023-11-19T08:08:48;3.30;;;2.80;;
60700;SDS011;46541;49.894;10.886;2023-11-19T08:11:14;4.63;;;3.10;;
60700;SDS011;46541;49.894;10.886;2023-11-19T08:13:41;6.70;;;3.30;;
60700;SDS011;46541;49.894;10.886;2023-11-19T08:16:08;5.20;;;1.85;;
60700;SDS011;46541;49.894;10.886;2023-11-19T08:18:36;3.05;;;1.98;;
60700;SDS011;46541;49.894;10.886;2023-11-19T08:21:03;2.90;;;2.30;;
60700;SDS011;46541;49.894;10.886;2023-11-19T08:23:31;2.55;;;1.92;;
60700;SDS011;46541;49.894;10.886;2023-11-19T08:25:57;5.57;;;2.10;;
60700;SDS011;46541;49.894;10.886;2023-11-19T08:28:24;4.35;;;1.70;;
60700;SDS011;46541;49.894;10.886;2023-11-19T08:30:51;2.30;;;1.60;;
60700;SDS011;46541;49.894;10.886;2023-11-19T08:33:17;2.33;;;1.88;;
60700;SDS011;46541;49.894;10.886;2023-11-19T08:35:44;1.83;;;1.65;;
60700;SDS011;46541;49.894;10.886;2023-11-19T08:38:11;2.72;;;2.17;;
60700;SDS011;46541;49.894;10.886;2023-11-19T08:40:38;2.75;;;1.90;;
60700;SDS011;46541;49.894;10.886;2023-11-19T08:43:05;5.07;;;3.75;;
60700;SDS011;46541;49.894;10.886;2023-11-19T08:45:33;5.80;;;4.22;;
60700;SDS011;46541;49.894;10.886;2023-11-19T08:47:59;2.28;;;1.90;;
60700;SDS011;46541;49.894;10.886;2023-11-19T08:50:26;2.50;;;2.15;;
60700;SDS011;46541;49.894;10.886;2023-11-19T08:52:53;1.88;;;1.58;;
60700;SDS011;46541;49.894;10.886;2023-11-19T08:55:20;2.60;;;2.17;;
60700;SDS011;46541;49.894;10.886;2023-11-19T08:57:47;1.67;;;1.10;;
60700;SDS011;46541;49.894;10.886;2023-11-19T09:00:13;1.58;;;1.25;;
60700;SDS011;46541;49.894;10.886;2023-11-19T09:02:40;1.65;;;1.38;;
60700;SDS011;46541;49.894;10.886;2023-11-19T09:05:09;1.60;;;0.85;;
60700;SDS011;46541;49.894;10.886;2023-11-19T09:07:36;3.45;;;1.25;;
60700;SDS011;46541;49.894;10.886;2023-11-19T09:10:03;1.48;;;1.27;;
60700;SDS011;46541;49.894;10.886;2023-11-19T09:12:31;1.35;;;1.13;;
60700;SDS011;46541;49.894;10.886;2023-11-19T09:14:58;1.40;;;0.88;;
60700;SDS011;46541;49.894;10.886;2023-11-19T09:17:25;1.63;;;1.48;;
60700;SDS011;46541;49.894;10.886;2023-11-19T09:19:51;1.83;;;1.30;;
60700;SDS011;46541;49.894;10.886;2023-11-19T09:22:18;3.22;;;2.17;;
60700;SDS011;46541;49.894;10.886;2023-11-19T09:24:45;3.13;;;1.75;;
60700;SDS011;46541;49.894;10.886;2023-11-19T09:27:12;3.72;;;1.90;;
60700;SDS011;46541;49.894;10.886;2023-11-19T09:29:38;3.22;;;2.42;;
60700;SDS011;46541;49.894;10.886;2023-11-19T09:32:05;1.63;;;1.33;;
60700;SDS011;46541;49.894;10.886;2023-11-19T09:34:33;1.58;;;1.23;;
60700;SDS011;46541;49.894;10.886;2023-11-19T09:37:00;1.20;;;1.10;;
60700;SDS011;46541;49.894;10.886;2023-11-19T09:39:27;2.13;;;1.27;;
60700;SDS011;46541;49.894;10.886;2023-11-19T09:41:54;1.10;;;1.00;;
60700;SDS011;46541;49.894;10.886;2023-11-19T09:44:21;4.18;;;2.58;;
60700;SDS011;46541;49.894;10.886;2023-11-19T09:46:48;5.85;;;3.05;;
60700;SDS011;46541;49.894;10.886;2023-11-19T09:49:15;2.35;;;1.83;;
60700;SDS011;46541;49.894;10.886;2023-11-19T09:52:01;2.35;;;1.63;;
60700;SDS011;46541;49.894;10.886;2023-11-19T09:54:29;2.03;;;0.68;;
60700;SDS011;46541;49.894;10.886;2023-11-19T09:56:56;1.10;;;0.70;;
60700;SDS011;46541;49.894;10.886;2023-11-19T09:59:29;1.73;;;1.33;;
60700;SDS011;46541;49.894;10.886;2023-11-19T10:01:57;1.88;;;1.23;;
60700;SDS011;46541;49.894;10.886;2023-11-19T10:04:25;3.60;;;1.73;;
60700;SDS011;46541;49.894;10.886;2023-11-19T10:06:56;1.67;;;1.38;;
60700;SDS011;46541;49.894;10.886;2023-11-19T10:09:23;4.35;;;3.10;;
60700;SDS011;46541;49.894;10.886;2023-11-19T10:11:49;4.43;;;2.67;;
60700;SDS011;46541;49.894;10.886;2023-11-19T10:14:17;2.58;;;1.95;;
60700;SDS011;46541;49.894;10.886;2023-11-19T10:16:49;3.78;;;2.08;;
60700;SDS011;46541;49.894;10.886;2023-11-19T10:19:19;7.28;;;2.40;;
60700;SDS011;46541;49.894;10.886;2023-11-19T10:21:49;1.33;;;1.02;;
60700;SDS011;46541;49.894;10.886;2023-11-19T10:24:15;6.75;;;3.35;;
60700;SDS011;46541;49.894;10.886;2023-11-19T10:26:45;4.93;;;1.92;;
60700;SDS011;46541;49.894;10.886;2023-11-19T10:29:15;19.27;;;11.32;;
60700;SDS011;46541;49.894;10.886;2023-11-19T10:31:43;6.53;;;4.25;;
60700;SDS011;46541;49.894;10.886;2023-11-19T10:34:26;11.10;;;4.85;;
60700;SDS011;46541;49.894;10.886;2023-11-19T10:36:53;3.80;;;2.30;;
60700;SDS011;46541;49.894;10.886;2023-11-19T10:39:20;3.25;;;1.75;;
60700;SDS011;46541;49.894;10.886;2023-11-19T10:41:47;3.30;;;1.30;;
60700;SDS011;46541;49.894;10.886;2023-11-19T10:44:30;4.20;;;2.88;;
60700;SDS011;46541;49.894;10.886;2023-11-19T10:47:00;3.90;;;1.47;;
60700;SDS011;46541;49.894;10.886;2023-11-19T10:49:26;3.45;;;0.98;;
60700;SDS011;46541;49.894;10.886;2023-11-19T10:51:53;4.35;;;1.10;;
60700;SDS011;46541;49.894;10.886;2023-11-19T10:54:23;2.53;;;1.17;;
60700;SDS011;46541;49.894;10.886;2023-11-19T10:56:54;3.47;;;1.75;;
60700;SDS011;46541;49.894;10.886;2023-11-19T10:59:25;2.90;;;1.40;;
60700;SDS011;46541;49.894;10.886;2023-11-19T11:01:59;3.83;;;2.13;;
60700;SDS011;46541;49.894;10.886;2023-11-19T11:04:32;3.63;;;0.90;;
60700;SDS011;46541;49.894;10.886;2023-11-19T11:07:05;4.78;;;1.45;;
60700;SDS011;46541;49.894;10.886;2023-11-19T11:09:33;7.43;;;1.45;;
60700;SDS011;46541;49.894;10.886;2023-11-19T11:12:00;3.58;;;1.40;;
60700;SDS011;46541;49.894;10.886;2023-11-19T11:14:29;2.97;;;0.90;;
60700;SDS011;46541;49.894;10.886;2023-11-19T11:16:58;3.58;;;1.10;;
60700;SDS011;46541;49.894;10.886;2023-11-19T11:19:26;4.75;;;1.05;;
60700;SDS011;46541;49.894;10.886;2023-11-19T11:21:53;5.60;;;1.23;;
60700;SDS011;46541;49.894;10.886;2023-11-19T11:27:22;3.13;;;1.05;;
60700;SDS011;46541;49.894;10.886;2023-11-19T11:38:06;3.30;;;1.75;;
60700;SDS011;46541;49.894;10.886;2023-11-19T11:40:34;5.22;;;1.50;;
60700;SDS011;46541;49.894;10.886;2023-11-19T11:43:02;9.98;;;3.72;;
60700;SDS011;46541;49.894;10.886;2023-11-19T11:45:40;4.45;;;2.00;;
60700;SDS011;46541;49.894;10.886;2023-11-19T11:48:13;3.53;;;1.40;;
60700;SDS011;46541;49.894;10.886;2023-11-19T11:50:47;11.02;;;3.78;;
60700;SDS011;46541;49.894;10.886;2023-11-19T11:53:22;6.57;;;3.28;;
60700;SDS011;46541;49.894;10.886;2023-11-19T11:58:18;10.32;;;4.80;;
60700;SDS011;46541;49.894;10.886;2023-11-19T12:00:45;3.53;;;1.92;;
60700;SDS011;46541;49.894;10.886;2023-11-19T12:03:13;6.95;;;2.03;;
60700;SDS011;46541;49.894;10.886;2023-11-19T12:05:41;5.35;;;2.05;;
60700;SDS011;46541;49.894;10.886;2023-11-19T12:08:13;12.90;;;5.10;;
60700;SDS011;46541;49.894;10.886;2023-11-19T12:13:13;4.97;;;2.10;;
60700;SDS011;46541;49.894;10.886;2023-11-19T12:18:24;6.53;;;1.48;;
60700;SDS011;46541;49.894;10.886;2023-11-19T12:20:53;3.78;;;1.10;;
60700;SDS011;46541;49.894;10.886;2023-11-19T12:23:21;4.20;;;1.20;;
60700;SDS011;46541;49.894;10.886;2023-11-19T12:25:48;4.78;;;0.95;;
60700;SDS011;46541;49.894;10.886;2023-11-19T12:28:15;3.63;;;1.70;;
60700;SDS011;46541;49.894;10.886;2023-11-19T12:30:43;7.72;;;2.50;;
60700;SDS011;46541;49.894;10.886;2023-11-19T12:33:11;65.07;;;24.08;;
60700;SDS011;46541;49.894;10.886;2023-11-19T12:35:41;67.38;;;25.52;;
60700;SDS011;46541;49.894;10.886;2023-11-19T12:38:19;50.78;;;18.95;;
60700;SDS011;46541;49.894;10.886;2023-11-19T12:40:47;97.78;;;35.13;;
60700;SDS011;46541;49.894;10.886;2023-11-19T12:43:28;106.47;;;38.97;;
60700;SDS011;46541;49.894;10.886;2023-11-19T12:45:55;19.77;;;6.95;;
60700;SDS011;46541;49.894;10.886;2023-11-19T12:48:21;11.73;;;3.75;;
60700;SDS011;46541;49.894;10.886;2023-11-19T12:53:22;7.93;;;1.70;;
60700;SDS011;46541;49.894;10.886;2023-11-19T12:55:53;12.68;;;4.15;;
60700;SDS011;46541;49.894;10.886;2023-11-19T12:58:31;14.38;;;5.85;;
60700;SDS011;46541;49.894;10.886;2023-11-19T13:00:59;15.48;;;6.45;;
60700;SDS011;46541;49.894;10.886;2023-11-19T13:03:34;9.25;;;3.08;;
60700;SDS011;46541;49.894;10.886;2023-11-19T13:08:45;11.65;;;4.55;;
60700;SDS011;46541;49.894;10.886;2023-11-19T13:11:32;20.15;;;10.07;;
60700;SDS011;46541;49.894;10.886;2023-11-19T13:14:00;12.20;;;5.38;;
60700;SDS011;46541;49.894;10.886;2023-11-19T13:16:36;9.20;;;4.90;;
60700;SDS011;46541;49.894;10.886;2023-11-19T13:19:03;14.15;;;4.40;;
60700;SDS011;46541;49.894;10.886;2023-11-19T13:21:31;16.88;;;5.88;;
60700;SDS011;46541;49.894;10.886;2023-11-19T13:23:58;9.43;;;3.13;;
60700;SDS011;46541;49.894;10.886;2023-11-19T13:26:25;10.68;;;2.83;;
60700;SDS011;46541;49.894;10.886;2023-11-19T13:28:52;8.60;;;3.28;;
60700;SDS011;46541;49.894;10.886;2023-11-19T13:31:18;10.10;;;4.30;;
60700;SDS011;46541;49.894;10.886;2023-11-19T13:33:45;9.65;;;5.00;;
60700;SDS011;46541;49.894;10.886;2023-11-19T13:36:12;14.90;;;7.15;;
60700;SDS011;46541;49.894;10.886;2023-11-19T13:38:42;12.25;;;5.03;;
60700;SDS011;46541;49.894;10.886;2023-11-19T13:41:11;27.33;;;12.40;;
60700;SDS011;46541;49.894;10.886;2023-11-19T13:43:38;16.13;;;6.50;;
60700;SDS011;46541;49.894;10.886;2023-11-19T13:46:05;19.65;;;10.38;;
60700;SDS011;46541;49.894;10.886;2023-11-19T13:48:32;13.30;;;8.40;;
60700;SDS011;46541;49.894;10.886;2023-11-19T13:50:59;15.80;;;7.80;;
60700;SDS011;46541;49.894;10.886;2023-11-19T13:53:26;15.05;;;9.15;;
60700;SDS011;46541;49.894;10.886;2023-11-19T13:55:53;29.88;;;16.77;;
60700;SDS011;46541;49.894;10.886;2023-11-19T13:58:19;34.70;;;14.50;;
60700;SDS011;46541;49.894;10.886;2023-11-19T14:00:55;23.95;;;10.18;;
60700;SDS011;46541;49.894;10.886;2023-11-19T14:03:22;28.48;;;17.95;;
60700;SDS011;46541;49.894;10.886;2023-11-19T14:05:49;24.98;;;13.38;;
60700;SDS011;46541;49.894;10.886;2023-11-19T14:08:18;11.60;;;8.27;;
60700;SDS011;46541;49.894;10.886;2023-11-19T14:10:51;14.32;;;5.43;;
60700;SDS011;46541;49.894;10.886;2023-11-19T14:13:22;10.35;;;4.85;;
60700;SDS011;46541;49.894;10.886;2023-11-19T14:15:52;9.20;;;3.92;;
60700;SDS011;46541;49.894;10.886;2023-11-19T14:18:19;9.48;;;3.67;;
60700;SDS011;46541;49.894;10.886;2023-11-19T14:20:46;9.13;;;4.35;;
60700;SDS011;46541;49.894;10.886;2023-11-19T14:23:13;13.40;;;7.60;;
60700;SDS011;46541;49.894;10.886;2023-11-19T14:25:39;15.43;;;6.85;;
60700;SDS011;46541;49.894;10.886;2023-11-19T14:28:06;6.53;;;4.15;;
60700;SDS011;46541;49.894;10.886;2023-11-19T14:30:34;7.95;;;3.97;;
60700;SDS011;46541;49.894;10.886;2023-11-19T14:33:01;12.13;;;7.05;;
60700;SDS011;46541;49.894;10.886;2023-11-19T14:35:29;17.92;;;8.68;;
60700;SDS011;46541;49.894;10.886;2023-11-19T14:37:56;8.35;;;4.82;;
60700;SDS011;46541;49.894;10.886;2023-11-19T14:40:23;12.25;;;5.30;;
60700;SDS011;46541;49.894;10.886;2023-11-19T14:43:08;12.57;;;4.65;;
60700;SDS011;46541;49.894;10.886;2023-11-19T14:45:37;16.10;;;6.95;;
60700;SDS011;46541;49.894;10.886;2023-11-19T14:48:14;7.63;;;4.47;;
60700;SDS011;46541;49.894;10.886;2023-11-19T14:50:41;9.25;;;3.22;;
60700;SDS011;46541;49.894;10.886;2023-11-19T14:53:24;8.35;;;4.07;;
60700;SDS011;46541;49.894;10.886;2023-11-19T14:55:57;12.65;;;5.38;;
60700;SDS011;46541;49.894;10.886;2023-11-19T14:58:24;9.48;;;4.40;;
60700;SDS011;46541;49.894;10.886;2023-11-19T15:00:52;12.65;;;5.63;;
60700;SDS011;46541;49.894;10.886;2023-11-19T15:03:19;16.27;;;6.90;;